createdAt,value
2018-03-04T00:00:08.191Z,55.96
2018-03-04T00:01:08.208Z,56.15
2018-03-04T00:02:08.231Z,56.15
2018-03-04T00:03:08.244Z,56.05
2018-03-04T00:04:08.253Z,56.15
2018-03-04T00:05:08.275Z,56.05
2018-03-04T00:06:08.291Z,56.05
2018-03-04T00:07:08.313Z,56.43
2018-03-04T00:08:08.322Z,56.43
2018-03-04T00:09:08.332Z,56.62
2018-03-04T00:10:08.396Z,56.62
2018-03-04T00:11:08.367Z,56.90
2018-03-04T00:12:08.382Z,56.52
2018-03-04T00:13:08.402Z,57.09
2018-03-04T00:14:08.408Z,56.43
2018-03-04T00:15:08.424Z,56.52
2018-03-04T00:16:08.439Z,56.62
2018-03-04T00:17:08.456Z,56.43
2018-03-04T00:18:08.498Z,56.62
2018-03-04T00:19:08.492Z,56.43
2018-03-04T00:20:08.515Z,56.43
2018-03-04T00:21:08.517Z,56.52
2018-03-04T00:22:08.530Z,56.52
2018-03-04T00:23:08.552Z,56.24
2018-03-04T00:24:08.585Z,56.81
2018-03-04T00:25:08.599Z,56.43
2018-03-04T00:26:08.598Z,56.90
2018-03-04T00:27:08.611Z,56.62
2018-03-04T00:28:08.624Z,56.90
2018-03-04T00:29:08.663Z,56.52
2018-03-04T00:30:08.658Z,56.52
2018-03-04T00:31:08.673Z,56.05
2018-03-04T00:32:08.697Z,56.15
2018-03-04T00:33:08.706Z,56.15
2018-03-04T00:34:08.721Z,56.15
2018-03-04T00:35:08.749Z,56.15
2018-03-04T00:36:08.755Z,56.24
2018-03-04T00:37:08.776Z,56.52
2018-03-04T00:38:08.792Z,56.96
2018-03-04T00:39:08.805Z,57.91
2018-03-04T00:40:08.811Z,57.53
2018-03-04T00:41:08.836Z,58.03
2018-03-04T00:42:08.856Z,57.94
2018-03-04T00:43:08.892Z,58.03
2018-03-04T00:44:08.887Z,57.91
2018-03-04T00:45:08.939Z,57.91
2018-03-04T00:46:08.907Z,57.91
2018-03-04T00:47:08.933Z,58.12
2018-03-04T00:48:08.944Z,58.22
2018-03-04T00:49:08.952Z,58.12
2018-03-04T00:50:08.974Z,57.81
2018-03-04T00:51:08.985Z,57.84
2018-03-04T00:52:09.000Z,58.10
2018-03-04T00:53:09.019Z,58.10
2018-03-04T00:54:09.034Z,58.19
2018-03-04T00:55:09.048Z,58.10
2018-03-04T00:56:09.063Z,57.81
2018-03-04T00:57:09.077Z,58.10
2018-03-04T00:58:09.867Z,57.84
2018-03-04T00:59:09.111Z,57.94
2018-03-04T01:00:09.133Z,57.94
2018-03-04T01:01:09.140Z,57.84
2018-03-04T01:02:09.171Z,57.75
2018-03-04T01:03:09.182Z,57.84
2018-03-04T01:04:09.194Z,58.12
2018-03-04T01:05:09.203Z,57.94
2018-03-04T01:06:09.224Z,57.94
2018-03-04T01:07:09.231Z,57.91
2018-03-04T01:08:09.250Z,57.94
2018-03-04T01:09:09.275Z,58.00
2018-03-04T01:10:09.279Z,58.03
2018-03-04T01:11:09.314Z,58.12
2018-03-04T01:12:09.318Z,58.31
2018-03-04T01:13:09.386Z,57.84
2018-03-04T01:14:09.347Z,58.31
2018-03-04T01:15:09.357Z,57.84
2018-03-04T01:16:09.376Z,57.56
2018-03-04T01:17:09.388Z,57.65
2018-03-04T01:18:09.401Z,57.84
2018-03-04T01:19:09.419Z,57.37
2018-03-04T01:20:09.440Z,57.28
2018-03-04T01:21:09.456Z,57.18
2018-03-04T01:22:09.466Z,57.18
2018-03-04T01:23:09.489Z,57.37
2018-03-04T01:24:09.553Z,56.99
2018-03-04T01:25:09.520Z,57.18
2018-03-04T01:26:10.364Z,57.09
2018-03-04T01:27:09.545Z,57.09
2018-03-04T01:28:09.564Z,57.37
2018-03-04T01:29:09.586Z,57.43
2018-03-04T01:30:09.599Z,57.46
2018-03-04T01:31:09.608Z,57.84
2018-03-04T01:32:09.621Z,57.28
2018-03-04T01:33:09.640Z,57.18
2018-03-04T01:34:09.657Z,57.34
2018-03-04T01:35:09.672Z,57.43
2018-03-04T01:36:09.683Z,57.43
2018-03-04T01:37:09.698Z,58.00
2018-03-04T01:38:09.738Z,58.38
2018-03-04T01:39:09.734Z,58.10
2018-03-04T01:40:09.746Z,57.72
2018-03-04T01:41:09.769Z,57.43
2018-03-04T01:42:09.778Z,57.72
2018-03-04T01:43:09.796Z,57.81
2018-03-04T01:44:09.804Z,57.91
2018-03-04T01:45:09.824Z,57.91
2018-03-04T01:46:09.843Z,57.81
2018-03-04T01:47:09.855Z,57.72
2018-03-04T01:48:09.881Z,58.19
2018-03-04T01:49:09.885Z,58.10
2018-03-04T01:50:09.910Z,59.23
2018-03-04T01:51:09.922Z,58.85
2018-03-04T01:52:09.953Z,58.95
2018-03-04T01:53:09.947Z,58.47
2018-03-04T01:54:09.962Z,58.95
2018-03-04T01:55:09.985Z,58.76
2018-03-04T01:56:09.992Z,59.14
2018-03-04T01:57:10.008Z,59.04
2018-03-04T01:58:10.031Z,58.66
2018-03-04T01:59:10.037Z,58.95
2018-03-04T02:00:10.054Z,58.38
2018-03-04T02:01:10.068Z,58.38
2018-03-04T02:02:10.082Z,58.85
2018-03-04T02:03:10.098Z,58.47
2018-03-04T02:04:10.127Z,58.19
2018-03-04T02:05:10.129Z,58.29
2018-03-04T02:06:10.153Z,58.00
2018-03-04T02:07:10.160Z,58.00
2018-03-04T02:08:10.191Z,58.00
2018-03-04T02:09:10.190Z,58.19
2018-03-04T02:10:10.211Z,57.91
2018-03-04T02:11:10.223Z,57.91
2018-03-04T02:12:10.233Z,58.19
2018-03-04T02:13:10.255Z,58.47
2018-03-04T02:14:10.281Z,58.47
2018-03-04T02:15:10.279Z,58.29
2018-03-04T02:16:10.305Z,58.19
2018-03-04T02:17:10.316Z,58.00
2018-03-04T02:18:10.327Z,57.91
2018-03-04T02:19:10.348Z,58.00
2018-03-04T02:20:10.357Z,58.00
2018-03-04T02:21:10.384Z,58.29
2018-03-04T02:22:10.387Z,58.29
2018-03-04T02:23:10.402Z,58.57
2018-03-04T02:24:10.420Z,58.47
2018-03-04T02:25:10.434Z,58.29
2018-03-04T02:26:10.446Z,58.00
2018-03-04T02:27:10.474Z,58.29
2018-03-04T02:28:10.480Z,58.38
2018-03-04T02:29:10.501Z,59.14
2018-03-04T02:30:10.510Z,58.57
2018-03-04T02:31:10.524Z,58.95
2018-03-04T02:32:10.555Z,58.95
2018-03-04T02:33:10.574Z,59.04
2018-03-04T02:34:10.574Z,58.57
2018-03-04T02:35:10.585Z,58.57
2018-03-04T02:36:10.633Z,59.23
2018-03-04T02:37:10.625Z,59.23
2018-03-04T02:38:10.637Z,58.85
2018-03-04T02:39:10.651Z,58.95
2018-03-04T02:40:10.663Z,58.76
2018-03-04T02:41:10.678Z,58.57
2018-03-04T02:42:10.697Z,58.47
2018-03-04T02:43:10.709Z,59.04
2018-03-04T02:44:10.722Z,59.61
2018-03-04T02:45:10.735Z,59.61
2018-03-04T02:46:10.764Z,59.61
2018-03-04T02:47:10.776Z,59.51
2018-03-04T02:48:10.786Z,59.51
2018-03-04T02:49:10.802Z,59.51
2018-03-04T02:50:10.812Z,59.61
2018-03-04T02:51:10.828Z,59.61
2018-03-04T02:52:10.845Z,59.42
2018-03-04T02:53:10.858Z,59.51
2018-03-04T02:54:10.881Z,59.42
2018-03-04T02:55:10.897Z,59.42
2018-03-04T02:56:10.906Z,59.51
2018-03-04T02:57:10.918Z,60.08
2018-03-04T02:58:10.952Z,59.99
2018-03-04T02:59:10.953Z,59.89
2018-03-04T03:00:10.988Z,59.80
2018-03-04T03:01:10.981Z,59.70
2018-03-04T03:02:10.998Z,59.61
2018-03-04T03:03:11.012Z,59.70
2018-03-04T03:04:11.027Z,60.27
2018-03-04T03:05:11.049Z,59.89
2018-03-04T03:06:11.056Z,59.80
2018-03-04T03:07:11.080Z,59.80
2018-03-04T03:08:11.088Z,59.80
2018-03-04T03:09:11.102Z,59.89
2018-03-04T03:10:11.119Z,60.08
2018-03-04T03:11:11.150Z,59.51
2018-03-04T03:12:11.148Z,59.61
2018-03-04T03:13:11.167Z,59.51
2018-03-04T03:14:11.173Z,59.51
2018-03-04T03:15:11.195Z,59.51
2018-03-04T03:16:11.204Z,59.42
2018-03-04T03:17:11.218Z,59.42
2018-03-04T03:18:11.232Z,59.42
2018-03-04T03:19:11.253Z,59.42
2018-03-04T03:20:11.275Z,59.51
2018-03-04T03:21:11.282Z,59.51
2018-03-04T03:22:11.301Z,59.51
2018-03-04T03:23:11.313Z,59.61
2018-03-04T03:24:11.324Z,59.42
2018-03-04T03:25:11.358Z,59.80
2018-03-04T03:26:11.353Z,59.89
2018-03-04T03:27:11.374Z,60.08
2018-03-04T03:28:11.400Z,59.89
2018-03-04T03:29:11.404Z,60.17
2018-03-04T03:30:11.424Z,59.80
2018-03-04T03:31:11.432Z,59.51
2018-03-04T03:32:11.446Z,59.99
2018-03-04T03:33:11.481Z,59.89
2018-03-04T03:34:11.484Z,60.36
2018-03-04T03:35:11.514Z,59.99
2018-03-04T03:36:11.503Z,60.55
2018-03-04T03:37:11.550Z,60.46
2018-03-04T03:38:11.538Z,60.08
2018-03-04T03:39:11.553Z,59.89
2018-03-04T03:40:11.562Z,59.70
2018-03-04T03:41:11.589Z,59.89
2018-03-04T03:42:11.598Z,60.08
2018-03-04T03:43:11.612Z,59.99
2018-03-04T03:44:11.625Z,59.89
2018-03-04T03:45:11.640Z,59.80
2018-03-04T03:46:11.655Z,59.80
2018-03-04T03:47:11.675Z,60.08
2018-03-04T03:48:12.354Z,59.89
2018-03-04T03:49:11.706Z,59.80
2018-03-04T03:50:11.811Z,59.61
2018-03-04T03:51:11.734Z,60.08
2018-03-04T03:52:11.759Z,59.99
2018-03-04T03:53:11.760Z,60.27
2018-03-04T03:54:11.781Z,59.80
2018-03-04T03:55:11.791Z,60.08
2018-03-04T03:56:11.803Z,59.80
2018-03-04T03:57:11.818Z,59.89
2018-03-04T03:58:11.834Z,59.99
2018-03-04T03:59:11.858Z,59.89
2018-03-04T04:00:11.865Z,59.51
2018-03-04T04:01:11.883Z,59.61
2018-03-04T04:02:11.893Z,59.89
2018-03-04T04:03:11.910Z,59.61
2018-03-04T04:04:11.928Z,59.89
2018-03-04T04:05:11.941Z,60.08
2018-03-04T04:06:11.958Z,60.64
2018-03-04T04:07:11.980Z,60.17
2018-03-04T04:08:11.992Z,61.30
2018-03-04T04:09:12.001Z,61.21
2018-03-04T04:10:12.016Z,60.93
2018-03-04T04:11:12.037Z,61.02
2018-03-04T04:12:12.045Z,60.93
2018-03-04T04:13:12.072Z,61.02
2018-03-04T04:14:12.075Z,60.55
2018-03-04T04:15:12.089Z,60.83
2018-03-04T04:16:12.104Z,60.93
2018-03-04T04:17:12.124Z,61.30
2018-03-04T04:18:12.134Z,60.36
2018-03-04T04:19:12.147Z,60.36
2018-03-04T04:20:12.171Z,61.11
2018-03-04T04:21:12.180Z,61.02
2018-03-04T04:22:12.195Z,61.02
2018-03-04T04:23:12.210Z,61.02
2018-03-04T04:24:12.221Z,60.93
2018-03-04T04:25:12.237Z,60.83
2018-03-04T04:26:12.256Z,60.93
2018-03-04T04:27:12.269Z,61.21
2018-03-04T04:28:12.280Z,61.11
2018-03-04T04:29:12.299Z,61.11
2018-03-04T04:30:12.311Z,60.93
2018-03-04T04:31:12.329Z,60.83
2018-03-04T04:32:12.345Z,60.55
2018-03-04T04:33:12.368Z,60.74
2018-03-04T04:34:12.392Z,61.40
2018-03-04T04:35:12.384Z,61.40
2018-03-04T04:36:12.403Z,61.58
2018-03-04T04:37:12.416Z,61.49
2018-03-04T04:38:12.432Z,61.68
2018-03-04T04:39:12.450Z,61.58
2018-03-04T04:40:12.474Z,61.02
2018-03-04T04:41:12.475Z,61.96
2018-03-04T04:42:12.495Z,61.87
2018-03-04T04:43:12.518Z,61.96
2018-03-04T04:44:12.527Z,61.87
2018-03-04T04:45:12.535Z,61.68
2018-03-04T04:46:12.568Z,61.77
2018-03-04T04:47:12.573Z,61.68
2018-03-04T04:48:12.578Z,61.77
2018-03-04T04:49:12.595Z,61.68
2018-03-04T04:50:12.609Z,61.40
2018-03-04T04:51:12.627Z,61.40
2018-03-04T04:52:12.647Z,61.49
2018-03-04T04:53:12.659Z,61.68
2018-03-04T04:54:12.667Z,61.77
2018-03-04T04:55:12.684Z,62.06
2018-03-04T04:56:12.695Z,61.49
2018-03-04T04:57:12.718Z,61.58
2018-03-04T04:58:12.729Z,61.30
2018-03-04T04:59:12.740Z,61.02
2018-03-04T05:00:12.754Z,61.02
2018-03-04T05:01:12.784Z,61.49
2018-03-04T05:02:12.782Z,61.30
2018-03-04T05:03:12.799Z,61.49
2018-03-04T05:04:12.822Z,61.40
2018-03-04T05:05:12.826Z,61.49
2018-03-04T05:06:12.841Z,61.68
2018-03-04T05:07:12.856Z,61.96
2018-03-04T05:08:12.880Z,61.87
2018-03-04T05:09:12.891Z,61.87
2018-03-04T05:10:12.898Z,61.58
2018-03-04T05:11:12.920Z,61.58
2018-03-04T05:12:12.933Z,61.96
2018-03-04T05:13:12.950Z,61.96
2018-03-04T05:14:12.967Z,61.87
2018-03-04T05:15:12.982Z,61.58
2018-03-04T05:16:13.056Z,61.21
2018-03-04T05:17:13.001Z,61.40
2018-03-04T05:18:13.041Z,61.30
2018-03-04T05:19:13.034Z,61.49
2018-03-04T05:20:13.052Z,61.40
2018-03-04T05:21:13.064Z,61.49
2018-03-04T05:22:13.077Z,61.49
2018-03-04T05:23:13.095Z,61.49
2018-03-04T05:24:13.106Z,61.58
2018-03-04T05:25:13.127Z,61.58
2018-03-04T05:26:13.135Z,61.49
2018-03-04T05:27:13.155Z,61.87
2018-03-04T05:28:13.169Z,62.06
2018-03-04T05:29:13.187Z,62.25
2018-03-04T05:30:13.199Z,62.06
2018-03-04T05:31:13.217Z,61.65
2018-03-04T05:32:13.229Z,62.31
2018-03-04T05:33:13.254Z,62.25
2018-03-04T05:34:13.274Z,62.25
2018-03-04T05:35:13.272Z,62.21
2018-03-04T05:36:13.284Z,62.06
2018-03-04T05:37:13.298Z,62.06
2018-03-04T05:38:13.317Z,62.03
2018-03-04T05:39:13.330Z,62.50
2018-03-04T05:40:13.345Z,62.69
2018-03-04T05:41:13.363Z,62.69
2018-03-04T05:42:13.372Z,62.62
2018-03-04T05:43:13.401Z,62.81
2018-03-04T05:44:13.410Z,62.34
2018-03-04T05:45:13.427Z,62.62
2018-03-04T05:46:14.333Z,62.53
2018-03-04T05:47:13.451Z,61.87
2018-03-04T05:48:13.469Z,62.25
2018-03-04T05:49:13.476Z,62.25
2018-03-04T05:50:13.492Z,62.25
2018-03-04T05:51:13.506Z,61.58
2018-03-04T05:52:13.525Z,61.96
2018-03-04T05:53:13.537Z,61.68
2018-03-04T05:54:13.548Z,61.77
2018-03-04T05:55:13.565Z,61.49
2018-03-04T05:56:13.573Z,61.68
2018-03-04T05:57:13.590Z,61.77
2018-03-04T05:58:13.610Z,61.87
2018-03-04T05:59:13.638Z,62.06
2018-03-04T06:00:13.633Z,61.77
2018-03-04T06:01:13.657Z,61.58
2018-03-04T06:02:13.669Z,61.96
2018-03-04T06:03:13.677Z,61.58
2018-03-04T06:04:13.694Z,61.58
2018-03-04T06:05:13.711Z,61.77
2018-03-04T06:06:13.724Z,61.49
2018-03-04T06:07:13.743Z,61.49
2018-03-04T06:08:13.769Z,61.68
2018-03-04T06:09:13.768Z,61.49
2018-03-04T06:10:13.783Z,61.68
2018-03-04T06:11:13.795Z,61.77
2018-03-04T06:12:13.813Z,61.87
2018-03-04T06:13:13.831Z,61.87
2018-03-04T06:14:13.855Z,61.58
2018-03-04T06:15:13.860Z,61.87
2018-03-04T06:16:13.867Z,61.87
2018-03-04T06:17:13.884Z,61.40
2018-03-04T06:18:13.901Z,61.68
2018-03-04T06:19:13.921Z,61.40
2018-03-04T06:20:13.940Z,61.49
2018-03-04T06:21:13.946Z,61.30
2018-03-04T06:22:13.956Z,61.30
2018-03-04T06:23:13.974Z,61.30
2018-03-04T06:24:13.991Z,61.58
2018-03-04T06:25:14.002Z,61.58
2018-03-04T06:26:14.015Z,61.30
2018-03-04T06:27:14.034Z,61.30
2018-03-04T06:28:14.043Z,61.30
2018-03-04T06:29:14.063Z,61.49
2018-03-04T06:30:14.076Z,61.30
2018-03-04T06:31:14.091Z,61.40
2018-03-04T06:32:14.106Z,61.40
2018-03-04T06:33:14.133Z,61.40
2018-03-04T06:34:14.135Z,61.58
2018-03-04T06:35:14.154Z,61.30
2018-03-04T06:36:14.177Z,61.02
2018-03-04T06:37:14.184Z,61.58
2018-03-04T06:38:14.199Z,61.30
2018-03-04T06:39:14.206Z,61.30
2018-03-04T06:40:14.221Z,61.58
2018-03-04T06:41:14.239Z,61.30
2018-03-04T06:42:14.257Z,61.11
2018-03-04T06:43:14.333Z,61.02
2018-03-04T06:44:14.281Z,61.40
2018-03-04T06:45:14.297Z,61.68
2018-03-04T06:46:14.313Z,60.64
2018-03-04T06:47:14.328Z,61.02
2018-03-04T06:48:14.344Z,60.93
2018-03-04T06:49:14.358Z,61.02
2018-03-04T06:50:14.374Z,61.02
2018-03-04T06:51:14.394Z,61.11
2018-03-04T06:52:14.400Z,60.93
2018-03-04T06:53:14.412Z,60.64
2018-03-04T06:54:14.435Z,61.21
2018-03-04T06:55:14.448Z,61.02
2018-03-04T06:56:14.459Z,60.55
2018-03-04T06:57:14.473Z,60.83
2018-03-04T06:58:14.497Z,61.21
2018-03-04T06:59:14.518Z,61.02
2018-03-04T07:00:14.528Z,61.02
2018-03-04T07:01:14.536Z,61.30
2018-03-04T07:02:14.546Z,60.93
2018-03-04T07:03:14.565Z,61.02
2018-03-04T07:04:14.578Z,60.93
2018-03-04T07:05:14.607Z,61.58
2018-03-04T07:06:14.605Z,61.77
2018-03-04T07:07:14.623Z,61.87
2018-03-04T07:08:14.639Z,61.11
2018-03-04T07:09:14.663Z,60.93
2018-03-04T07:10:14.670Z,61.02
2018-03-04T07:11:14.679Z,61.21
2018-03-04T07:12:14.710Z,61.11
2018-03-04T07:13:14.723Z,60.83
2018-03-04T07:14:14.724Z,61.21
2018-03-04T07:15:14.743Z,61.02
2018-03-04T07:16:14.767Z,60.74
2018-03-04T07:17:14.768Z,60.17
2018-03-04T07:18:14.788Z,60.17
2018-03-04T07:19:14.799Z,60.74
2018-03-04T07:20:14.813Z,59.51
2018-03-04T07:21:14.837Z,59.70
2018-03-04T07:22:14.852Z,59.89
2018-03-04T07:23:14.866Z,59.70
2018-03-04T07:24:14.885Z,59.61
2018-03-04T07:25:14.889Z,59.70
2018-03-04T07:26:14.899Z,59.51
2018-03-04T07:27:14.924Z,59.80
2018-03-04T07:28:14.937Z,60.17
2018-03-04T07:29:14.957Z,59.89
2018-03-04T07:30:14.963Z,59.42
2018-03-04T07:31:14.989Z,59.70
2018-03-04T07:32:15.013Z,59.61
2018-03-04T07:33:15.011Z,59.42
2018-03-04T07:34:15.075Z,59.51
2018-03-04T07:35:15.060Z,59.51
2018-03-04T07:36:15.067Z,59.33
2018-03-04T07:37:15.070Z,59.14
2018-03-04T07:38:15.087Z,59.04
2018-03-04T07:39:15.097Z,58.95
2018-03-04T07:40:15.155Z,59.14
2018-03-04T07:41:15.134Z,58.60
2018-03-04T07:42:15.164Z,58.69
2018-03-04T07:43:15.163Z,58.98
2018-03-04T07:44:15.181Z,58.50
2018-03-04T07:45:15.192Z,58.03
2018-03-04T07:46:15.205Z,57.84
2018-03-04T07:47:15.229Z,58.12
2018-03-04T07:48:15.241Z,58.19
2018-03-04T07:49:15.254Z,58.88
2018-03-04T07:50:15.266Z,58.10
2018-03-04T07:51:15.279Z,58.95
2018-03-04T07:52:15.306Z,58.88
2018-03-04T07:53:15.314Z,58.98
2018-03-04T07:54:15.328Z,58.98
2018-03-04T07:55:15.357Z,58.50
2018-03-04T07:56:15.359Z,57.94
2018-03-04T07:57:15.391Z,57.84
2018-03-04T07:58:15.390Z,58.03
2018-03-04T07:59:15.416Z,58.12
2018-03-04T08:00:15.437Z,57.46
2018-03-04T08:01:15.439Z,57.94
2018-03-04T08:02:15.467Z,57.94
2018-03-04T08:03:15.467Z,57.94
2018-03-04T08:04:15.481Z,57.94
2018-03-04T08:05:15.504Z,56.99
2018-03-04T08:06:15.528Z,57.09
2018-03-04T08:07:15.535Z,56.99
2018-03-04T08:08:15.567Z,57.09
2018-03-04T08:09:15.563Z,56.99
2018-03-04T08:10:15.590Z,57.09
2018-03-04T08:11:15.594Z,56.90
2018-03-04T08:12:15.618Z,56.52
2018-03-04T08:13:15.632Z,56.43
2018-03-04T08:14:15.647Z,55.58
2018-03-04T08:15:15.664Z,55.58
2018-03-04T08:16:15.673Z,55.20
2018-03-04T08:17:15.695Z,55.49
2018-03-04T08:18:15.704Z,55.30
2018-03-04T08:19:15.726Z,55.04
2018-03-04T08:20:15.739Z,55.23
2018-03-04T08:21:15.770Z,54.75
2018-03-04T08:22:15.763Z,54.94
2018-03-04T08:23:15.786Z,54.94
2018-03-04T08:24:15.803Z,55.23
2018-03-04T08:25:15.851Z,54.38
2018-03-04T08:26:15.832Z,54.38
2018-03-04T08:27:15.846Z,55.89
2018-03-04T08:28:15.866Z,55.42
2018-03-04T08:29:15.879Z,54.75
2018-03-04T08:30:15.894Z,54.57
2018-03-04T08:31:15.917Z,54.19
2018-03-04T08:32:15.933Z,54.47
2018-03-04T08:33:15.951Z,53.72
2018-03-04T08:34:15.956Z,53.91
2018-03-04T08:35:15.975Z,54.10
2018-03-04T08:36:15.996Z,54.85
2018-03-04T08:37:16.007Z,54.38
2018-03-04T08:38:16.026Z,54.57
2018-03-04T08:39:16.041Z,55.13
2018-03-04T08:40:16.066Z,54.38
2018-03-04T08:41:16.076Z,54.28
2018-03-04T08:42:16.092Z,54.66
2018-03-04T08:43:16.114Z,54.75
2018-03-04T08:44:16.124Z,54.10
2018-03-04T08:45:16.144Z,54.00
2018-03-04T08:46:16.171Z,54.00
2018-03-04T08:47:16.173Z,53.91
2018-03-04T08:48:16.191Z,54.19
2018-03-04T08:49:16.221Z,53.81
2018-03-04T08:50:16.220Z,53.15
2018-03-04T08:51:16.245Z,54.19
2018-03-04T08:52:16.260Z,54.28
2018-03-04T08:53:16.281Z,53.81
2018-03-04T08:54:16.289Z,53.53
2018-03-04T08:55:16.306Z,53.15
2018-03-04T08:56:16.323Z,52.87
2018-03-04T08:57:16.341Z,52.68
2018-03-04T08:58:16.418Z,52.68
2018-03-04T08:59:16.389Z,52.87
2018-03-04T09:00:16.380Z,52.11
2018-03-04T09:01:16.412Z,51.92
2018-03-04T09:02:16.510Z,51.73
2018-03-04T09:03:16.435Z,51.73
2018-03-04T09:04:16.456Z,51.83
2018-03-04T09:05:16.476Z,52.11
2018-03-04T09:06:16.493Z,51.92
2018-03-04T09:07:16.504Z,52.04
2018-03-04T09:08:16.527Z,51.95
2018-03-04T09:09:16.543Z,51.86
2018-03-04T09:10:16.551Z,51.20
2018-03-04T09:11:16.569Z,50.72
2018-03-04T09:12:16.602Z,50.44
2018-03-04T09:13:16.603Z,50.44
2018-03-04T09:14:16.619Z,49.78
2018-03-04T09:15:16.642Z,49.97
2018-03-04T09:16:16.651Z,50.44
2018-03-04T09:17:16.674Z,50.44
2018-03-04T09:18:16.691Z,49.49
2018-03-04T09:19:16.707Z,50.18
2018-03-04T09:20:16.729Z,49.24
2018-03-04T09:21:16.790Z,49.05
2018-03-04T09:22:16.761Z,48.93
2018-03-04T09:23:16.807Z,49.11
2018-03-04T09:24:16.793Z,49.49
2018-03-04T09:25:16.821Z,49.24
2018-03-04T09:26:16.841Z,49.24
2018-03-04T09:27:16.857Z,48.86
2018-03-04T09:28:16.863Z,48.01
2018-03-04T09:29:16.886Z,48.20
2018-03-04T09:30:16.901Z,48.01
2018-03-04T09:31:16.925Z,48.86
2018-03-04T09:32:16.939Z,49.62
2018-03-04T09:33:16.954Z,49.24
2018-03-04T09:34:16.975Z,49.14
2018-03-04T09:35:16.994Z,48.95
2018-03-04T09:36:17.008Z,48.86
2018-03-04T09:37:17.023Z,49.05
2018-03-04T09:38:17.042Z,48.67
2018-03-04T09:39:17.070Z,47.82
2018-03-04T09:40:17.077Z,47.63
2018-03-04T09:41:17.102Z,47.63
2018-03-04T09:42:17.140Z,47.44
2018-03-04T09:43:17.154Z,48.01
2018-03-04T09:44:17.169Z,46.69
2018-03-04T09:45:17.184Z,46.80
2018-03-04T09:46:17.193Z,46.61
2018-03-04T09:47:17.227Z,46.04
2018-03-04T09:48:17.230Z,45.76
2018-03-04T09:49:17.242Z,45.03
2018-03-04T09:50:17.258Z,44.09
2018-03-04T09:51:17.289Z,43.23
2018-03-04T09:52:17.297Z,42.76
2018-03-04T09:53:17.322Z,43.04
2018-03-04T09:54:17.337Z,42.59
2018-03-04T09:55:17.356Z,42.02
2018-03-04T09:56:17.373Z,41.64
2018-03-04T09:57:17.395Z,41.36
2018-03-04T09:58:17.420Z,41.46
2018-03-04T09:59:17.440Z,41.27
2018-03-04T10:00:17.459Z,41.27
2018-03-04T10:01:17.483Z,41.55
2018-03-04T10:02:17.504Z,41.00
2018-03-04T10:03:17.521Z,40.15
2018-03-04T10:04:17.547Z,40.26
2018-03-04T10:05:17.561Z,39.32
2018-03-04T10:06:17.577Z,37.99
2018-03-04T10:07:17.600Z,37.73
2018-03-04T10:08:17.632Z,36.70
2018-03-04T10:09:18.308Z,35.39
2018-03-04T10:10:17.676Z,33.98
2018-03-04T10:11:17.699Z,33.23
2018-03-04T10:12:17.723Z,32.20
2018-03-04T10:13:17.734Z,31.15
2018-03-04T10:14:17.763Z,30.30
2018-03-04T10:15:17.793Z,30.22
2018-03-04T10:16:17.803Z,31.47
2018-03-04T10:17:17.828Z,29.49
2018-03-04T10:18:17.863Z,28.25
2018-03-04T10:19:17.877Z,29.58
2018-03-04T10:20:17.903Z,28.82
2018-03-04T10:21:17.937Z,27.68
2018-03-04T10:22:17.951Z,27.28
2018-03-04T10:23:17.976Z,27.65
2018-03-04T10:24:18.012Z,29.17
2018-03-04T10:25:18.031Z,28.81
2018-03-04T10:26:18.064Z,27.30
2018-03-04T10:27:18.103Z,27.20
2018-03-04T10:28:18.103Z,27.19
2018-03-04T10:29:18.137Z,27.30
2018-03-04T10:30:18.202Z,27.19
2018-03-04T10:31:18.185Z,27.01
2018-03-04T10:32:18.219Z,26.47
2018-03-04T10:33:18.232Z,25.43
2018-03-04T10:34:18.275Z,24.38
2018-03-04T10:35:18.418Z,24.67
2018-03-04T10:36:18.471Z,24.39
2018-03-04T10:37:18.367Z,23.82
2018-03-04T10:38:18.374Z,23.35
2018-03-04T10:39:24.837Z,22.69
2018-03-04T10:40:18.459Z,22.02
2018-03-04T10:41:18.460Z,21.84
2018-03-04T10:42:18.514Z,21.55
2018-03-04T10:43:18.522Z,21.26
2018-03-04T10:44:18.553Z,20.97
2018-03-04T10:45:18.623Z,21.64
2018-03-04T10:46:18.603Z,21.08
2018-03-04T10:47:18.639Z,20.72
2018-03-04T10:48:18.673Z,19.85
2018-03-04T10:49:18.724Z,19.56
2018-03-04T10:50:18.729Z,19.84
2018-03-04T10:51:18.763Z,19.95
2018-03-04T10:52:18.786Z,19.46
2018-03-04T10:53:18.824Z,19.38
2018-03-04T10:54:18.846Z,19.28
2018-03-04T10:55:18.881Z,19.29
2018-03-04T10:56:18.915Z,18.82
2018-03-04T10:57:18.947Z,18.63
2018-03-04T10:58:18.985Z,18.54
2018-03-04T10:59:18.999Z,18.43
2018-03-04T11:00:19.044Z,18.99
2018-03-04T11:01:19.897Z,19.28
2018-03-04T11:02:19.103Z,19.38
2018-03-04T11:03:19.141Z,19.09
2018-03-04T11:04:19.169Z,19.65
2018-03-04T11:05:19.189Z,19.84
2018-03-04T11:06:19.220Z,19.64
2018-03-04T11:07:19.273Z,19.66
2018-03-04T11:08:19.296Z,19.38
2018-03-04T11:09:19.326Z,18.80
2018-03-04T11:10:19.349Z,19.20
2018-03-04T11:11:19.375Z,18.81
2018-03-04T11:12:19.417Z,18.32
2018-03-04T11:13:19.454Z,19.37
2018-03-04T11:14:19.488Z,19.64
2018-03-04T11:15:19.575Z,20.60
2018-03-04T11:16:19.554Z,20.03
2018-03-04T11:17:19.572Z,20.23
2018-03-04T11:18:19.614Z,19.28
2018-03-04T11:19:19.632Z,18.62
2018-03-04T11:20:19.662Z,18.72
2018-03-04T11:21:19.707Z,18.35
2018-03-04T11:22:19.747Z,18.15
2018-03-04T11:23:19.767Z,18.25
2018-03-04T11:24:19.819Z,17.58
2018-03-04T11:25:19.826Z,17.78
2018-03-04T11:26:19.857Z,17.59
2018-03-04T11:27:19.890Z,17.20
2018-03-04T11:28:19.928Z,17.77
2018-03-04T11:29:19.961Z,17.58
2018-03-04T11:30:19.992Z,18.13
2018-03-04T11:31:20.024Z,18.90
2018-03-04T11:32:20.066Z,18.73
2018-03-04T11:33:20.088Z,18.04
2018-03-04T11:34:20.119Z,18.33
2018-03-04T11:35:20.151Z,18.61
2018-03-04T11:36:20.185Z,18.71
2018-03-04T11:37:20.228Z,18.99
2018-03-04T11:38:20.247Z,19.64
2018-03-04T11:39:20.290Z,20.67
2018-03-04T11:40:20.321Z,22.19
2018-03-04T11:41:20.355Z,22.48
2018-03-04T11:42:20.373Z,22.40
2018-03-04T11:43:20.417Z,22.30
2018-03-04T11:44:20.437Z,22.49
2018-03-04T11:45:20.481Z,22.02
2018-03-04T11:46:20.503Z,21.92
2018-03-04T11:47:20.534Z,21.92
2018-03-04T11:48:20.556Z,21.83
2018-03-04T11:49:20.594Z,21.92
2018-03-04T11:50:20.626Z,21.35
2018-03-04T11:51:20.647Z,23.46
2018-03-04T11:52:20.681Z,24.88
2018-03-04T11:53:20.711Z,25.26
2018-03-04T11:54:20.733Z,25.26
2018-03-04T11:55:20.773Z,26.47
2018-03-04T11:56:20.816Z,27.42
2018-03-04T11:57:20.832Z,26.59
2018-03-04T11:58:20.860Z,24.60
2018-03-04T11:59:20.885Z,24.32
2018-03-04T12:00:20.927Z,23.93
2018-03-04T12:01:20.947Z,23.47
2018-03-04T12:02:20.979Z,22.91
2018-03-04T12:03:21.008Z,22.24
2018-03-04T12:04:21.041Z,21.11
2018-03-04T12:05:21.074Z,19.95
2018-03-04T12:06:21.100Z,20.52
2018-03-04T12:07:21.152Z,19.96
2018-03-04T12:08:21.160Z,19.77
2018-03-04T12:09:21.194Z,19.49
2018-03-04T12:10:21.220Z,19.02
2018-03-04T12:11:21.254Z,18.83
2018-03-04T12:12:21.293Z,18.35
2018-03-04T12:13:21.344Z,18.80
2018-03-04T12:14:21.350Z,19.47
2018-03-04T12:15:21.372Z,19.86
2018-03-04T12:16:21.418Z,19.48
2018-03-04T12:17:21.443Z,19.95
2018-03-04T12:18:21.476Z,20.04
2018-03-04T12:19:21.556Z,19.96
2018-03-04T12:20:21.543Z,19.49
2018-03-04T12:21:21.565Z,19.11
2018-03-04T12:22:21.606Z,18.93
2018-03-04T12:23:21.628Z,18.07
2018-03-04T12:24:21.670Z,18.46
2018-03-04T12:25:21.725Z,17.69
2018-03-04T12:26:21.722Z,17.69
2018-03-04T12:27:21.751Z,18.55
2018-03-04T12:28:21.823Z,17.88
2018-03-04T12:29:21.841Z,18.05
2018-03-04T12:30:21.854Z,19.08
2018-03-04T12:31:21.882Z,21.17
2018-03-04T12:32:21.945Z,22.39
2018-03-04T12:33:21.940Z,24.38
2018-03-04T12:34:21.975Z,26.07
2018-03-04T12:35:21.990Z,27.39
2018-03-04T12:36:22.017Z,28.23
2018-03-04T12:37:22.073Z,30.03
2018-03-04T12:38:22.079Z,30.88
2018-03-04T12:39:22.105Z,30.96
2018-03-04T12:40:22.123Z,31.05
2018-03-04T12:41:22.153Z,30.87
2018-03-04T12:42:22.203Z,31.13
2018-03-04T12:43:22.209Z,31.71
2018-03-04T12:44:22.238Z,32.28
2018-03-04T12:45:22.278Z,31.99
2018-03-04T12:46:22.295Z,32.18
2018-03-04T12:47:22.315Z,32.46
2018-03-04T12:48:22.353Z,33.02
2018-03-04T12:49:22.369Z,32.94
2018-03-04T12:50:22.391Z,32.83
2018-03-04T12:51:22.435Z,33.21
2018-03-04T12:52:22.442Z,33.50